Weather at İsdemir İskenderun Demir Ve Çelik Anonim Şirketi Helipad

Public forecast

Using degrees Celsius for public forecast. Weather courtesy of forecast.io.

Closest aviation weather report (METAR) to İsdemir İskenderun Demir Ve Çelik Anonim Şirketi Helipad

Closest report is Hatay Airport, 21.3 nm (39.5 km) S.

2024/04/24 10:50 (retrieved 58 minutes ago)

LTDA 241050Z VRB03KT CAVOK 33/13 Q1012 NOSIG

Closest aviation forecast (TAF) to İsdemir İskenderun Demir Ve Çelik Anonim Şirketi Helipad

Closest forecast is İncirlik Air Base, 41.6 nm (77.1 km) WNW.

2024/04/24 06:03 (retrieved 6 hours ago)

TAF LTAG 240440Z 2406/2506 VRB02KT CAVOK BECMG 2418/2420 03012KT